createdAt,value
2019-06-26T00:00:42.778Z,62.77
2019-06-26T00:05:48.302Z,62.83
2019-06-26T00:10:53.823Z,62.81
2019-06-26T00:15:59.339Z,62.80
2019-06-26T00:21:04.856Z,62.82
2019-06-26T00:26:10.299Z,62.62
2019-06-26T00:31:15.744Z,62.82
2019-06-26T00:36:21.251Z,62.67
2019-06-26T00:41:26.861Z,62.61
2019-06-26T00:46:32.513Z,62.65
2019-06-26T00:51:38.062Z,62.68
2019-06-26T00:56:43.515Z,62.62
2019-06-26T01:01:49.127Z,62.53
2019-06-26T01:06:54.646Z,62.82
2019-06-26T01:12:00.175Z,62.51
2019-06-26T01:17:05.766Z,62.59
2019-06-26T01:22:11.380Z,62.81
2019-06-26T01:27:16.860Z,63.19
2019-06-26T01:32:22.390Z,63.10
2019-06-26T01:37:27.834Z,62.97
2019-06-26T01:42:33.283Z,63.13
2019-06-26T01:47:38.793Z,63.18
2019-06-26T01:52:44.398Z,63.03
2019-06-26T01:57:49.841Z,62.99
2019-06-26T02:02:55.455Z,63.42
2019-06-26T02:08:00.971Z,63.59
2019-06-26T02:13:06.560Z,63.29
2019-06-26T02:18:29.586Z,63.65
2019-06-26T02:23:35.115Z,63.57
2019-06-26T02:28:40.581Z,63.54
2019-06-26T02:33:46.027Z,63.57
2019-06-26T02:38:51.496Z,63.80
2019-06-26T02:43:57.005Z,63.82
2019-06-26T02:49:02.461Z,64.13
2019-06-26T02:54:08.000Z,64.01
2019-06-26T02:59:13.435Z,63.80
2019-06-26T03:04:18.901Z,64.07
2019-06-26T03:09:24.401Z,64.08
2019-06-26T03:14:29.904Z,64.02
2019-06-26T03:19:35.411Z,64.25
2019-06-26T03:24:40.939Z,64.36
2019-06-26T03:29:46.866Z,64.39
2019-06-26T03:34:52.437Z,65.49
2019-06-26T03:39:57.980Z,65.40
2019-06-26T03:45:04.727Z,65.36
2019-06-26T03:50:10.383Z,65.52
2019-06-26T03:55:16.472Z,65.65
2019-06-26T04:00:40.619Z,65.62
2019-06-26T04:05:46.513Z,66.01
2019-06-26T04:10:52.001Z,66.81
2019-06-26T04:15:57.537Z,66.51
2019-06-26T04:21:03.150Z,67.49
2019-06-26T04:26:08.683Z,66.08
2019-06-26T04:31:14.148Z,65.94
2019-06-26T04:36:19.695Z,66.18
2019-06-26T04:41:25.250Z,65.35
2019-06-26T04:46:30.735Z,65.17
2019-06-26T04:51:36.278Z,64.50
2019-06-26T04:56:41.770Z,65.21
2019-06-26T05:01:47.245Z,62.91
2019-06-26T05:06:52.793Z,61.69
2019-06-26T05:11:58.300Z,61.31
2019-06-26T05:17:03.873Z,61.46
2019-06-26T05:22:09.395Z,60.64
2019-06-26T05:27:14.882Z,60.40
2019-06-26T05:32:20.399Z,59.90
2019-06-26T05:37:25.942Z,59.67
2019-06-26T05:42:31.408Z,59.50
2019-06-26T05:47:36.950Z,59.42
2019-06-26T05:52:43.271Z,59.52
2019-06-26T05:57:48.824Z,60.08
2019-06-26T06:02:54.364Z,60.01
2019-06-26T06:07:59.808Z,60.53
2019-06-26T06:13:05.364Z,60.63
2019-06-26T06:18:10.949Z,61.03
2019-06-26T06:23:18.094Z,60.70
2019-06-26T06:28:23.768Z,60.72
2019-06-26T06:33:29.249Z,60.85
2019-06-26T06:38:34.737Z,61.08
2019-06-26T06:43:40.269Z,61.32
2019-06-26T06:48:45.755Z,62.06
2019-06-26T06:53:51.196Z,61.80
2019-06-26T06:58:56.642Z,61.72
2019-06-26T07:04:02.217Z,61.85
2019-06-26T07:09:08.034Z,61.84
2019-06-26T07:14:13.501Z,61.82
2019-06-26T07:19:19.038Z,61.71
2019-06-26T07:24:24.517Z,61.65
2019-06-26T07:29:30.105Z,61.60
2019-06-26T07:34:35.722Z,61.35
2019-06-26T07:39:41.224Z,61.22
2019-06-26T07:44:46.746Z,61.11
2019-06-26T07:49:52.194Z,61.03
2019-06-26T07:54:57.644Z,61.03
2019-06-26T08:00:03.146Z,60.86
2019-06-26T08:05:10.544Z,60.76
2019-06-26T08:10:16.017Z,60.68
2019-06-26T08:15:21.505Z,60.58
2019-06-26T08:20:26.965Z,60.62
2019-06-26T08:25:32.417Z,60.65
2019-06-26T08:30:37.897Z,60.48
2019-06-26T08:35:43.373Z,60.56
2019-06-26T08:40:48.899Z,60.53
2019-06-26T08:45:54.362Z,60.51
2019-06-26T08:51:00.947Z,60.56
2019-06-26T08:56:06.453Z,60.47
2019-06-26T09:01:11.924Z,60.59
2019-06-26T09:06:17.395Z,60.99
2019-06-26T09:11:22.986Z,60.72
2019-06-26T09:16:28.544Z,60.65
2019-06-26T09:21:34.016Z,60.53
2019-06-26T09:26:39.485Z,60.73
2019-06-26T09:31:44.965Z,60.59
2019-06-26T09:36:50.429Z,60.54
2019-06-26T09:41:55.910Z,60.53
2019-06-26T09:47:01.537Z,60.41
2019-06-26T09:52:07.149Z,60.40
2019-06-26T09:57:12.695Z,60.44
2019-06-26T10:07:43.470Z,60.51
2019-06-26T10:12:48.919Z,60.51
2019-06-26T10:17:54.358Z,60.57
2019-06-26T10:22:59.911Z,60.59
2019-06-26T10:28:05.423Z,60.44
2019-06-26T10:33:10.949Z,60.49
2019-06-26T10:38:16.381Z,60.52
2019-06-26T10:43:21.927Z,60.73
2019-06-26T10:48:27.399Z,60.39
2019-06-26T10:53:32.828Z,60.40
2019-06-26T10:58:38.342Z,60.41
2019-06-26T11:03:43.842Z,60.43
2019-06-26T11:08:49.288Z,60.48
2019-06-26T11:13:54.821Z,60.35
2019-06-26T11:19:00.344Z,60.36
2019-06-26T11:24:05.781Z,60.32
2019-06-26T11:29:11.223Z,60.21
2019-06-26T11:34:16.762Z,60.12
2019-06-26T11:39:22.252Z,60.12
2019-06-26T11:44:27.731Z,60.12
2019-06-26T11:49:33.188Z,60.14
2019-06-26T11:54:38.638Z,60.12
2019-06-26T11:59:44.159Z,60.08
2019-06-26T12:04:49.638Z,60.03
2019-06-26T12:09:55.318Z,60.07
2019-06-26T12:15:00.818Z,60.03
2019-06-26T12:20:18.087Z,60.08
2019-06-26T12:25:14.205Z,60.10
2019-06-26T12:30:19.750Z,60.15
2019-06-26T12:35:25.239Z,60.09
2019-06-26T12:40:31.496Z,60.13
2019-06-26T12:45:37.082Z,60.12
2019-06-26T12:50:42.608Z,60.12
2019-06-26T12:55:48.047Z,60.17
2019-06-26T13:00:53.541Z,60.19
2019-06-26T13:05:59.008Z,60.19
2019-06-26T13:11:04.560Z,60.20
2019-06-26T13:16:09.995Z,60.15
2019-06-26T13:21:15.471Z,60.20
2019-06-26T13:26:21.136Z,60.33
2019-06-26T13:31:26.640Z,60.32
2019-06-26T13:36:32.174Z,60.33
2019-06-26T13:41:37.758Z,60.31
2019-06-26T13:46:43.223Z,60.32
2019-06-26T13:51:49.138Z,60.27
2019-06-26T13:56:54.613Z,60.31
2019-06-26T14:02:00.060Z,60.47
2019-06-26T14:07:08.527Z,60.54
2019-06-26T14:12:12.711Z,60.69
2019-06-26T14:17:18.144Z,60.66
2019-06-26T14:22:23.576Z,60.53
2019-06-26T14:27:29.032Z,60.51
2019-06-26T14:32:34.464Z,60.50
2019-06-26T14:37:39.890Z,60.44
2019-06-26T14:42:45.372Z,60.65
2019-06-26T14:47:50.867Z,60.64
2019-06-26T14:52:56.294Z,60.46
2019-06-26T14:58:01.733Z,60.65
2019-06-26T15:03:07.188Z,60.52
2019-06-26T15:08:12.699Z,60.51
2019-06-26T15:13:18.228Z,60.45
2019-06-26T15:18:23.682Z,60.44
2019-06-26T15:23:29.135Z,60.50
2019-06-26T15:28:34.658Z,60.76
2019-06-26T15:33:40.105Z,60.95
2019-06-26T15:38:45.558Z,61.00
2019-06-26T15:43:51.092Z,61.18
2019-06-26T15:48:56.546Z,61.54
2019-06-26T15:54:02.130Z,63.58
2019-06-26T15:59:07.565Z,63.28
2019-06-26T16:04:13.024Z,63.46
2019-06-26T16:09:18.465Z,63.67
2019-06-26T16:14:23.985Z,63.76
2019-06-26T16:19:31.092Z,63.67
2019-06-26T16:24:36.737Z,63.46
2019-06-26T16:29:42.624Z,64.52
2019-06-26T16:34:48.348Z,64.59
2019-06-26T16:39:54.151Z,64.53
2019-06-26T16:44:59.596Z,64.55
2019-06-26T16:50:06.484Z,64.51
2019-06-26T16:55:12.010Z,64.72
2019-06-26T17:00:18.984Z,64.60
2019-06-26T17:05:24.493Z,64.74
2019-06-26T17:10:30.022Z,64.49
2019-06-26T17:15:35.746Z,64.82
2019-06-26T17:20:41.452Z,65.23
2019-06-26T17:25:46.964Z,65.38
2019-06-26T17:30:53.040Z,65.44
2019-06-26T17:35:58.618Z,65.96
2019-06-26T17:41:04.137Z,67.10
2019-06-26T17:46:09.669Z,67.90
2019-06-26T17:51:15.170Z,68.42
2019-06-26T17:56:20.672Z,68.41
2019-06-26T18:01:26.263Z,68.34
2019-06-26T18:06:31.794Z,68.38
2019-06-26T18:11:37.446Z,68.17
2019-06-26T18:16:42.947Z,67.99
2019-06-26T18:21:48.420Z,68.14
2019-06-26T18:26:53.882Z,67.95
2019-06-26T18:31:59.392Z,67.95
2019-06-26T18:37:04.917Z,67.63
2019-06-26T18:42:10.638Z,67.69
2019-06-26T18:47:17.768Z,67.45
2019-06-26T18:52:23.388Z,67.51
2019-06-26T18:57:28.857Z,67.68
2019-06-26T19:02:34.333Z,67.64
2019-06-26T19:07:39.817Z,67.79
2019-06-26T19:12:45.294Z,67.71
2019-06-26T19:17:50.786Z,67.82
2019-06-26T19:22:56.346Z,67.74
2019-06-26T19:28:01.843Z,67.70
2019-06-26T19:33:07.341Z,67.65
2019-06-26T19:38:12.969Z,67.80
2019-06-26T19:43:18.542Z,67.90
2019-06-26T19:48:24.086Z,68.37
2019-06-26T19:53:29.583Z,68.35
2019-06-26T19:58:35.051Z,68.19
2019-06-26T20:03:40.606Z,68.09
2019-06-26T20:08:54.562Z,68.10
2019-06-26T20:13:53.293Z,68.13
2019-06-26T20:18:58.766Z,68.04
2019-06-26T20:24:04.299Z,67.98
2019-06-26T20:29:09.786Z,68.06
2019-06-26T20:34:15.243Z,68.02
2019-06-26T20:39:20.805Z,68.01
2019-06-26T20:44:26.384Z,67.79
2019-06-26T20:49:31.924Z,67.96
2019-06-26T20:54:37.393Z,67.61
2019-06-26T20:59:42.896Z,67.68
2019-06-26T21:04:48.383Z,68.05
2019-06-26T21:09:54.010Z,68.06
2019-06-26T21:14:59.502Z,67.85
2019-06-26T21:20:06.376Z,68.05
2019-06-26T21:25:19.073Z,67.88
2019-06-26T21:30:20.246Z,67.90
2019-06-26T21:35:25.875Z,67.83
2019-06-26T21:40:31.316Z,67.65
2019-06-26T21:45:36.760Z,67.78
2019-06-26T21:50:42.224Z,67.63
2019-06-26T21:55:47.660Z,67.63
2019-06-26T22:01:10.594Z,67.56
2019-06-26T22:12:04.735Z,67.47
2019-06-26T22:17:10.366Z,67.41
2019-06-26T22:22:16.018Z,67.38
2019-06-26T22:27:21.571Z,67.27
2019-06-26T22:32:27.130Z,67.12
2019-06-26T22:37:32.677Z,67.12
2019-06-26T22:42:38.241Z,67.09
2019-06-26T22:47:43.677Z,67.13
2019-06-26T22:52:50.226Z,67.09
2019-06-26T22:57:55.700Z,67.09
2019-06-26T23:03:01.182Z,67.12
2019-06-26T23:08:06.835Z,67.07
2019-06-26T23:13:12.455Z,67.10
2019-06-26T23:18:17.919Z,67.01
2019-06-26T23:23:23.426Z,66.88
2019-06-26T23:28:28.896Z,66.80
2019-06-26T23:33:34.353Z,66.78
2019-06-26T23:38:39.915Z,66.75
2019-06-26T23:43:45.374Z,66.64
2019-06-26T23:48:50.863Z,66.58
2019-06-26T23:53:56.334Z,66.47
2019-06-26T23:59:01.826Z,66.53
